sensor_id;sensor_type;location;lat;lon;timestamp;temperature;humidity
59893;DHT22;45758;51.052;3.740;2022-12-08T00:00:17;5.00;99.90
59893;DHT22;45758;51.052;3.740;2022-12-08T00:02:48;5.00;99.90
59893;DHT22;45758;51.052;3.740;2022-12-08T00:05:17;4.90;99.90
59893;DHT22;45758;51.052;3.740;2022-12-08T00:08:01;4.90;99.90
59893;DHT22;45758;51.052;3.740;2022-12-08T00:10:46;4.90;99.90
59893;DHT22;45758;51.052;3.740;2022-12-08T00:13:15;4.90;99.90
59893;DHT22;45758;51.052;3.740;2022-12-08T00:15:45;5.00;99.90
59893;DHT22;45758;51.052;3.740;2022-12-08T00:18:12;5.00;99.90
59893;DHT22;45758;51.052;3.740;2022-12-08T00:20:45;5.00;99.90
59893;DHT22;45758;51.052;3.740;2022-12-08T00:23:21;4.90;99.90
59893;DHT22;45758;51.052;3.740;2022-12-08T00:25:49;4.90;99.90
59893;DHT22;45758;51.052;3.740;2022-12-08T00:28:18;4.80;99.90
59893;DHT22;45758;51.052;3.740;2022-12-08T00:30:46;4.80;99.90
59893;DHT22;45758;51.052;3.740;2022-12-08T00:33:13;4.70;99.90
59893;DHT22;45758;51.052;3.740;2022-12-08T00:35:44;4.70;99.90
59893;DHT22;45758;51.052;3.740;2022-12-08T00:38:10;4.90;99.90
59893;DHT22;45758;51.052;3.740;2022-12-08T00:40:36;4.80;99.90
59893;DHT22;45758;51.052;3.740;2022-12-08T00:43:02;5.00;99.90
59893;DHT22;45758;51.052;3.740;2022-12-08T00:45:28;5.00;99.90
59893;DHT22;45758;51.052;3.740;2022-12-08T00:47:57;5.10;99.90
59893;DHT22;45758;51.052;3.740;2022-12-08T00:50:23;5.10;99.90
59893;DHT22;45758;51.052;3.740;2022-12-08T00:53:03;5.10;99.90
59893;DHT22;45758;51.052;3.740;2022-12-08T00:55:37;5.20;99.90
59893;DHT22;45758;51.052;3.740;2022-12-08T00:58:06;5.30;99.90
59893;DHT22;45758;51.052;3.740;2022-12-08T01:00:55;5.20;99.90
59893;DHT22;45758;51.052;3.740;2022-12-08T01:03:28;5.30;99.90
59893;DHT22;45758;51.052;3.740;2022-12-08T01:08:34;5.00;99.90
59893;DHT22;45758;51.052;3.740;2022-12-08T01:11:16;5.00;99.90
59893;DHT22;45758;51.052;3.740;2022-12-08T01:13:42;5.00;99.90
59893;DHT22;45758;51.052;3.740;2022-12-08T01:16:33;5.00;99.90
59893;DHT22;45758;51.052;3.740;2022-12-08T01:19:00;5.00;99.90
59893;DHT22;45758;51.052;3.740;2022-12-08T01:21:34;5.10;99.90
59893;DHT22;45758;51.052;3.740;2022-12-08T01:24:00;5.30;99.90
59893;DHT22;45758;51.052;3.740;2022-12-08T01:26:27;5.30;99.90
59893;DHT22;45758;51.052;3.740;2022-12-08T01:28:53;5.20;99.90
59893;DHT22;45758;51.052;3.740;2022-12-08T01:31:22;5.20;99.90
59893;DHT22;45758;51.052;3.740;2022-12-08T01:33:50;5.20;99.90
59893;DHT22;45758;51.052;3.740;2022-12-08T01:36:25;5.10;99.90
59893;DHT22;45758;51.052;3.740;2022-12-08T01:38:58;5.20;99.90
59893;DHT22;45758;51.052;3.740;2022-12-08T01:41:26;5.20;99.90
59893;DHT22;45758;51.052;3.740;2022-12-08T01:49:32;5.10;99.90
59893;DHT22;45758;51.052;3.740;2022-12-08T01:54:55;5.20;99.90
59893;DHT22;45758;51.052;3.740;2022-12-08T01:57:35;5.10;99.90
59893;DHT22;45758;51.052;3.740;2022-12-08T02:00:17;5.10;99.90
59893;DHT22;45758;51.052;3.740;2022-12-08T02:03:08;5.20;99.90
59893;DHT22;45758;51.052;3.740;2022-12-08T02:35:51;4.40;99.90
59893;DHT22;45758;51.052;3.740;2022-12-08T02:49:01;4.40;99.90
59893;DHT22;45758;51.052;3.740;2022-12-08T02:51:28;4.40;99.90
59893;DHT22;45758;51.052;3.740;2022-12-08T02:53:54;4.40;99.90
59893;DHT22;45758;51.052;3.740;2022-12-08T02:56:45;4.50;99.90
59893;DHT22;45758;51.052;3.740;2022-12-08T02:59:33;4.50;99.90
59893;DHT22;45758;51.052;3.740;2022-12-08T03:05:27;4.70;99.90
59893;DHT22;45758;51.052;3.740;2022-12-08T03:08:11;4.80;99.90
59893;DHT22;45758;51.052;3.740;2022-12-08T03:10:46;4.90;99.90
59893;DHT22;45758;51.052;3.740;2022-12-08T03:13:32;4.90;99.90
59893;DHT22;45758;51.052;3.740;2022-12-08T03:16:00;5.00;99.90
59893;DHT22;45758;51.052;3.740;2022-12-08T03:18:36;5.00;99.90
59893;DHT22;45758;51.052;3.740;2022-12-08T03:21:04;4.90;99.90
59893;DHT22;45758;51.052;3.740;2022-12-08T03:23:31;5.00;99.90
59893;DHT22;45758;51.052;3.740;2022-12-08T03:26:06;4.90;99.90
59893;DHT22;45758;51.052;3.740;2022-12-08T03:28:36;4.90;99.90
59893;DHT22;45758;51.052;3.740;2022-12-08T03:31:06;4.90;99.90
59893;DHT22;45758;51.052;3.740;2022-12-08T03:33:40;5.00;99.90
59893;DHT22;45758;51.052;3.740;2022-12-08T03:36:07;5.00;99.90
59893;DHT22;45758;51.052;3.740;2022-12-08T03:38:43;4.90;99.90
59893;DHT22;45758;51.052;3.740;2022-12-08T03:41:10;4.90;99.90
59893;DHT22;45758;51.052;3.740;2022-12-08T03:43:50;5.10;99.90
59893;DHT22;45758;51.052;3.740;2022-12-08T03:46:20;4.90;99.90
59893;DHT22;45758;51.052;3.740;2022-12-08T03:48:46;4.90;99.90
59893;DHT22;45758;51.052;3.740;2022-12-08T03:51:13;4.80;99.90
59893;DHT22;45758;51.052;3.740;2022-12-08T03:53:39;4.90;99.90
59893;DHT22;45758;51.052;3.740;2022-12-08T03:56:14;5.00;99.90
59893;DHT22;45758;51.052;3.740;2022-12-08T03:58:42;5.00;99.90
59893;DHT22;45758;51.052;3.740;2022-12-08T04:01:11;4.90;99.90
59893;DHT22;45758;51.052;3.740;2022-12-08T04:06:05;4.90;99.90
59893;DHT22;45758;51.052;3.740;2022-12-08T04:08:40;4.90;99.90
59893;DHT22;45758;51.052;3.740;2022-12-08T04:11:09;4.80;99.90
59893;DHT22;45758;51.052;3.740;2022-12-08T04:13:42;4.80;99.90
59893;DHT22;45758;51.052;3.740;2022-12-08T04:16:23;4.90;99.90
59893;DHT22;45758;51.052;3.740;2022-12-08T04:18:52;4.90;99.90
59893;DHT22;45758;51.052;3.740;2022-12-08T04:21:20;4.90;99.90
59893;DHT22;45758;51.052;3.740;2022-12-08T04:23:52;4.90;99.90
59893;DHT22;45758;51.052;3.740;2022-12-08T04:26:18;4.80;99.90
59893;DHT22;45758;51.052;3.740;2022-12-08T04:28:45;4.70;99.90
59893;DHT22;45758;51.052;3.740;2022-12-08T04:31:20;4.60;99.90
59893;DHT22;45758;51.052;3.740;2022-12-08T04:33:53;4.60;99.90
59893;DHT22;45758;51.052;3.740;2022-12-08T04:36:26;4.70;99.90
59893;DHT22;45758;51.052;3.740;2022-12-08T04:39:00;4.70;99.90
59893;DHT22;45758;51.052;3.740;2022-12-08T04:41:38;4.90;99.90
59893;DHT22;45758;51.052;3.740;2022-12-08T04:44:27;4.80;99.90
59893;DHT22;45758;51.052;3.740;2022-12-08T04:49:38;4.80;99.90
59893;DHT22;45758;51.052;3.740;2022-12-08T04:52:30;4.70;99.90
59893;DHT22;45758;51.052;3.740;2022-12-08T04:54:56;4.60;99.90
59893;DHT22;45758;51.052;3.740;2022-12-08T04:57:32;4.70;99.90
59893;DHT22;45758;51.052;3.740;2022-12-08T05:00:16;4.60;99.90
59893;DHT22;45758;51.052;3.740;2022-12-08T05:02:45;4.60;99.90
59893;DHT22;45758;51.052;3.740;2022-12-08T05:05:14;4.70;99.90
59893;DHT22;45758;51.052;3.740;2022-12-08T05:07:41;4.60;99.90
59893;DHT22;45758;51.052;3.740;2022-12-08T05:12:49;4.60;99.90
59893;DHT22;45758;51.052;3.740;2022-12-08T05:15:29;4.60;99.90
59893;DHT22;45758;51.052;3.740;2022-12-08T05:18:12;4.70;99.90
59893;DHT22;45758;51.052;3.740;2022-12-08T05:23:16;4.70;99.90
59893;DHT22;45758;51.052;3.740;2022-12-08T05:26:07;4.60;99.90
59893;DHT22;45758;51.052;3.740;2022-12-08T05:28:33;4.60;99.90
59893;DHT22;45758;51.052;3.740;2022-12-08T05:30:59;4.60;99.90
59893;DHT22;45758;51.052;3.740;2022-12-08T05:33:30;4.60;99.90
59893;DHT22;45758;51.052;3.740;2022-12-08T05:44:02;4.60;99.90
59893;DHT22;45758;51.052;3.740;2022-12-08T05:46:41;4.70;99.90
59893;DHT22;45758;51.052;3.740;2022-12-08T05:49:15;4.40;99.90
59893;DHT22;45758;51.052;3.740;2022-12-08T05:51:42;4.40;99.90
59893;DHT22;45758;51.052;3.740;2022-12-08T05:54:09;4.50;99.90
59893;DHT22;45758;51.052;3.740;2022-12-08T05:56:35;4.40;99.90
59893;DHT22;45758;51.052;3.740;2022-12-08T06:01:47;4.50;99.90
59893;DHT22;45758;51.052;3.740;2022-12-08T06:12:00;4.50;99.90
59893;DHT22;45758;51.052;3.740;2022-12-08T06:14:39;4.60;99.90
59893;DHT22;45758;51.052;3.740;2022-12-08T06:17:05;4.60;99.90
59893;DHT22;45758;51.052;3.740;2022-12-08T06:19:31;4.50;99.90
59893;DHT22;45758;51.052;3.740;2022-12-08T06:21:59;4.60;99.90
59893;DHT22;45758;51.052;3.740;2022-12-08T06:24:29;4.60;99.90
59893;DHT22;45758;51.052;3.740;2022-12-08T06:30:02;4.50;99.90
59893;DHT22;45758;51.052;3.740;2022-12-08T06:32:35;4.60;99.90
59893;DHT22;45758;51.052;3.740;2022-12-08T06:35:10;4.70;99.90
59893;DHT22;45758;51.052;3.740;2022-12-08T06:40:36;4.70;99.90
59893;DHT22;45758;51.052;3.740;2022-12-08T06:43:13;4.80;99.90
59893;DHT22;45758;51.052;3.740;2022-12-08T06:48:24;4.80;99.90
59893;DHT22;45758;51.052;3.740;2022-12-08T06:50:50;4.70;99.90
59893;DHT22;45758;51.052;3.740;2022-12-08T06:53:19;4.70;99.90
59893;DHT22;45758;51.052;3.740;2022-12-08T06:55:50;4.60;99.90
59893;DHT22;45758;51.052;3.740;2022-12-08T06:58:29;4.70;99.90
59893;DHT22;45758;51.052;3.740;2022-12-08T07:01:17;4.70;99.90
59893;DHT22;45758;51.052;3.740;2022-12-08T07:03:44;4.70;99.90
59893;DHT22;45758;51.052;3.740;2022-12-08T07:09:03;4.70;99.90
59893;DHT22;45758;51.052;3.740;2022-12-08T07:11:29;4.70;99.90
59893;DHT22;45758;51.052;3.740;2022-12-08T07:13:55;4.70;99.90
59893;DHT22;45758;51.052;3.740;2022-12-08T07:16:22;4.70;99.90
59893;DHT22;45758;51.052;3.740;2022-12-08T07:18:48;4.70;99.90
59893;DHT22;45758;51.052;3.740;2022-12-08T07:21:14;4.70;99.90
59893;DHT22;45758;51.052;3.740;2022-12-08T07:23:41;4.80;99.90
59893;DHT22;45758;51.052;3.740;2022-12-08T07:26:11;4.90;99.90
59893;DHT22;45758;51.052;3.740;2022-12-08T07:28:39;4.90;99.90
59893;DHT22;45758;51.052;3.740;2022-12-08T07:31:14;4.90;99.90
59893;DHT22;45758;51.052;3.740;2022-12-08T07:33:40;4.90;99.90
59893;DHT22;45758;51.052;3.740;2022-12-08T07:36:07;5.00;99.90
59893;DHT22;45758;51.052;3.740;2022-12-08T07:38:33;5.00;99.90
59893;DHT22;45758;51.052;3.740;2022-12-08T07:41:02;5.00;99.90
59893;DHT22;45758;51.052;3.740;2022-12-08T07:43:28;4.90;99.90
59893;DHT22;45758;51.052;3.740;2022-12-08T07:45:53;4.90;99.90
59893;DHT22;45758;51.052;3.740;2022-12-08T07:48:19;4.90;99.90
59893;DHT22;45758;51.052;3.740;2022-12-08T07:50:46;4.90;99.90
59893;DHT22;45758;51.052;3.740;2022-12-08T07:53:12;4.90;99.90
59893;DHT22;45758;51.052;3.740;2022-12-08T07:55:39;4.90;99.90
59893;DHT22;45758;51.052;3.740;2022-12-08T07:58:06;5.00;99.90
59893;DHT22;45758;51.052;3.740;2022-12-08T08:00:32;5.00;99.90
59893;DHT22;45758;51.052;3.740;2022-12-08T08:02:57;5.10;99.90
59893;DHT22;45758;51.052;3.740;2022-12-08T08:05:24;5.20;99.90
59893;DHT22;45758;51.052;3.740;2022-12-08T08:07:50;5.30;99.90
59893;DHT22;45758;51.052;3.740;2022-12-08T08:10:16;5.30;99.90
59893;DHT22;45758;51.052;3.740;2022-12-08T08:12:42;5.30;99.90
59893;DHT22;45758;51.052;3.740;2022-12-08T08:15:09;5.40;99.90
59893;DHT22;45758;51.052;3.740;2022-12-08T08:17:36;5.30;99.90
59893;DHT22;45758;51.052;3.740;2022-12-08T08:20:06;5.30;99.90
59893;DHT22;45758;51.052;3.740;2022-12-08T08:22:33;5.30;99.90
59893;DHT22;45758;51.052;3.740;2022-12-08T08:25:01;5.30;99.90
59893;DHT22;45758;51.052;3.740;2022-12-08T08:27:27;5.30;99.90
59893;DHT22;45758;51.052;3.740;2022-12-08T08:29:53;5.40;99.90
59893;DHT22;45758;51.052;3.740;2022-12-08T08:32:19;5.40;99.90
59893;DHT22;45758;51.052;3.740;2022-12-08T08:34:46;5.40;99.90
59893;DHT22;45758;51.052;3.740;2022-12-08T08:37:12;5.30;99.90
59893;DHT22;45758;51.052;3.740;2022-12-08T08:39:39;5.30;99.90
59893;DHT22;45758;51.052;3.740;2022-12-08T08:42:05;5.20;99.90
59893;DHT22;45758;51.052;3.740;2022-12-08T08:44:31;5.10;99.90
59893;DHT22;45758;51.052;3.740;2022-12-08T08:46:56;5.00;99.90
59893;DHT22;45758;51.052;3.740;2022-12-08T08:49:23;4.90;99.90
59893;DHT22;45758;51.052;3.740;2022-12-08T08:51:49;4.80;99.90
59893;DHT22;45758;51.052;3.740;2022-12-08T08:54:15;4.80;99.90
59893;DHT22;45758;51.052;3.740;2022-12-08T08:56:41;4.80;99.90
59893;DHT22;45758;51.052;3.740;2022-12-08T08:59:08;4.70;99.90
59893;DHT22;45758;51.052;3.740;2022-12-08T09:01:34;4.70;99.90
59893;DHT22;45758;51.052;3.740;2022-12-08T09:04:00;4.70;99.90
59893;DHT22;45758;51.052;3.740;2022-12-08T09:06:27;4.60;99.90
59893;DHT22;45758;51.052;3.740;2022-12-08T09:08:53;4.60;99.90
59893;DHT22;45758;51.052;3.740;2022-12-08T09:11:19;4.60;99.90
59893;DHT22;45758;51.052;3.740;2022-12-08T09:13:49;4.80;99.90
59893;DHT22;45758;51.052;3.740;2022-12-08T09:16:16;4.70;99.90
59893;DHT22;45758;51.052;3.740;2022-12-08T09:18:45;4.80;99.90
59893;DHT22;45758;51.052;3.740;2022-12-08T09:21:15;5.00;99.90
59893;DHT22;45758;51.052;3.740;2022-12-08T09:23:45;5.20;99.90
59893;DHT22;45758;51.052;3.740;2022-12-08T09:26:11;5.20;99.90
59893;DHT22;45758;51.052;3.740;2022-12-08T09:28:37;5.30;99.90
59893;DHT22;45758;51.052;3.740;2022-12-08T09:31:03;5.50;99.90
59893;DHT22;45758;51.052;3.740;2022-12-08T09:33:29;5.40;99.90
59893;DHT22;45758;51.052;3.740;2022-12-08T09:35:55;5.60;99.90
59893;DHT22;45758;51.052;3.740;2022-12-08T09:38:21;5.70;99.90
59893;DHT22;45758;51.052;3.740;2022-12-08T09:40:51;5.70;99.90
59893;DHT22;45758;51.052;3.740;2022-12-08T09:43:43;5.90;99.90
59893;DHT22;45758;51.052;3.740;2022-12-08T09:46:13;6.00;99.90
59893;DHT22;45758;51.052;3.740;2022-12-08T09:48:44;5.90;99.90
59893;DHT22;45758;51.052;3.740;2022-12-08T09:51:14;5.90;99.90
59893;DHT22;45758;51.052;3.740;2022-12-08T09:53:48;5.80;99.90
59893;DHT22;45758;51.052;3.740;2022-12-08T09:56:18;5.80;99.90
59893;DHT22;45758;51.052;3.740;2022-12-08T10:01:36;5.90;99.90
59893;DHT22;45758;51.052;3.740;2022-12-08T10:04:23;5.90;99.90
59893;DHT22;45758;51.052;3.740;2022-12-08T10:07:04;5.90;99.90
59893;DHT22;45758;51.052;3.740;2022-12-08T10:09:58;5.80;99.90
59893;DHT22;45758;51.052;3.740;2022-12-08T10:18:10;6.00;99.90
59893;DHT22;45758;51.052;3.740;2022-12-08T10:20:41;6.00;99.90
59893;DHT22;45758;51.052;3.740;2022-12-08T10:26:02;6.20;99.90
59893;DHT22;45758;51.052;3.740;2022-12-08T10:28:28;6.30;99.90
59893;DHT22;45758;51.052;3.740;2022-12-08T10:30:54;6.30;99.90
59893;DHT22;45758;51.052;3.740;2022-12-08T10:33:21;6.30;99.90
59893;DHT22;45758;51.052;3.740;2022-12-08T10:35:56;6.30;99.90
59893;DHT22;45758;51.052;3.740;2022-12-08T10:38:34;6.30;99.90
59893;DHT22;45758;51.052;3.740;2022-12-08T10:41:08;6.20;99.90
59893;DHT22;45758;51.052;3.740;2022-12-08T10:43:39;6.10;99.90
59893;DHT22;45758;51.052;3.740;2022-12-08T10:48:53;5.60;99.90
59893;DHT22;45758;51.052;3.740;2022-12-08T10:51:23;5.60;99.90
59893;DHT22;45758;51.052;3.740;2022-12-08T10:53:49;5.50;99.90
59893;DHT22;45758;51.052;3.740;2022-12-08T10:56:16;5.50;99.90
59893;DHT22;45758;51.052;3.740;2022-12-08T10:58:44;5.60;99.90
59893;DHT22;45758;51.052;3.740;2022-12-08T11:01:19;5.70;99.90
59893;DHT22;45758;51.052;3.740;2022-12-08T11:06:40;6.20;99.90
59893;DHT22;45758;51.052;3.740;2022-12-08T11:11:49;6.30;99.90
59893;DHT22;45758;51.052;3.740;2022-12-08T11:14:22;6.50;99.90
59893;DHT22;45758;51.052;3.740;2022-12-08T11:16:52;6.70;99.90
59893;DHT22;45758;51.052;3.740;2022-12-08T11:19:20;6.80;99.90
59893;DHT22;45758;51.052;3.740;2022-12-08T11:21:46;6.80;99.90
59893;DHT22;45758;51.052;3.740;2022-12-08T11:24:25;6.90;99.90
59893;DHT22;45758;51.052;3.740;2022-12-08T11:27:04;6.80;99.90
59893;DHT22;45758;51.052;3.740;2022-12-08T11:29:33;6.80;99.90
59893;DHT22;45758;51.052;3.740;2022-12-08T11:32:03;6.90;99.90
59893;DHT22;45758;51.052;3.740;2022-12-08T11:34:40;6.90;99.90
59893;DHT22;45758;51.052;3.740;2022-12-08T11:37:16;7.00;99.90
59893;DHT22;45758;51.052;3.740;2022-12-08T11:39:47;7.10;99.90
59893;DHT22;45758;51.052;3.740;2022-12-08T11:42:17;7.20;99.90
59893;DHT22;45758;51.052;3.740;2022-12-08T11:44:52;7.30;99.90
59893;DHT22;45758;51.052;3.740;2022-12-08T11:47:25;7.30;99.90
59893;DHT22;45758;51.052;3.740;2022-12-08T11:49:53;7.20;99.90
59893;DHT22;45758;51.052;3.740;2022-12-08T11:55:04;7.30;99.90
59893;DHT22;45758;51.052;3.740;2022-12-08T11:57:38;7.30;99.90
59893;DHT22;45758;51.052;3.740;2022-12-08T12:08:38;7.80;99.90
59893;DHT22;45758;51.052;3.740;2022-12-08T12:17:09;8.30;99.90
59893;DHT22;45758;51.052;3.740;2022-12-08T12:19:47;8.20;99.90
59893;DHT22;45758;51.052;3.740;2022-12-08T12:22:21;8.20;99.90
59893;DHT22;45758;51.052;3.740;2022-12-08T12:24:51;8.20;99.90
59893;DHT22;45758;51.052;3.740;2022-12-08T12:27:31;8.20;99.90
59893;DHT22;45758;51.052;3.740;2022-12-08T12:30:08;8.10;99.90
59893;DHT22;45758;51.052;3.740;2022-12-08T12:32:57;8.00;99.90
59893;DHT22;45758;51.052;3.740;2022-12-08T12:35:44;8.10;99.90
59893;DHT22;45758;51.052;3.740;2022-12-08T12:38:25;8.10;99.90
59893;DHT22;45758;51.052;3.740;2022-12-08T12:41:36;8.00;99.90
59893;DHT22;45758;51.052;3.740;2022-12-08T12:54:31;7.30;99.90
59893;DHT22;45758;51.052;3.740;2022-12-08T13:02:46;6.40;99.90
59893;DHT22;45758;51.052;3.740;2022-12-08T13:05:51;6.20;99.90
59893;DHT22;45758;51.052;3.740;2022-12-08T13:08:25;6.00;99.90
59893;DHT22;45758;51.052;3.740;2022-12-08T13:11:10;5.90;99.90
59893;DHT22;45758;51.052;3.740;2022-12-08T13:13:37;5.90;99.90
59893;DHT22;45758;51.052;3.740;2022-12-08T13:18:45;5.80;99.90
59893;DHT22;45758;51.052;3.740;2022-12-08T13:21:28;5.70;99.90
59893;DHT22;45758;51.052;3.740;2022-12-08T13:33:50;5.80;99.90
59893;DHT22;45758;51.052;3.740;2022-12-08T13:36:48;5.50;99.90
59893;DHT22;45758;51.052;3.740;2022-12-08T13:39:46;5.50;99.90
59893;DHT22;45758;51.052;3.740;2022-12-08T13:42:35;5.50;99.90
59893;DHT22;45758;51.052;3.740;2022-12-08T13:53:39;4.90;99.90
59893;DHT22;45758;51.052;3.740;2022-12-08T13:56:15;4.80;99.90
59893;DHT22;45758;51.052;3.740;2022-12-08T14:01:43;4.80;99.90
59893;DHT22;45758;51.052;3.740;2022-12-08T14:04:17;4.80;99.90
59893;DHT22;45758;51.052;3.740;2022-12-08T14:07:02;4.90;99.90
59893;DHT22;45758;51.052;3.740;2022-12-08T14:09:35;5.00;99.90
59893;DHT22;45758;51.052;3.740;2022-12-08T14:12:14;5.10;99.90
59893;DHT22;45758;51.052;3.740;2022-12-08T14:14:52;5.10;99.90
59893;DHT22;45758;51.052;3.740;2022-12-08T14:17:22;5.20;99.90
59893;DHT22;45758;51.052;3.740;2022-12-08T14:20:01;5.20;99.90
59893;DHT22;45758;51.052;3.740;2022-12-08T14:22:35;5.20;99.90
59893;DHT22;45758;51.052;3.740;2022-12-08T14:25:10;5.30;99.90
59893;DHT22;45758;51.052;3.740;2022-12-08T14:27:40;5.40;99.90
59893;DHT22;45758;51.052;3.740;2022-12-08T14:33:14;5.30;99.90
59893;DHT22;45758;51.052;3.740;2022-12-08T14:35:49;5.40;99.90
59893;DHT22;45758;51.052;3.740;2022-12-08T14:38:19;5.40;99.90
59893;DHT22;45758;51.052;3.740;2022-12-08T14:43:29;5.20;99.90
59893;DHT22;45758;51.052;3.740;2022-12-08T14:46:02;5.20;99.90
59893;DHT22;45758;51.052;3.740;2022-12-08T14:58:49;4.80;99.90
59893;DHT22;45758;51.052;3.740;2022-12-08T15:01:23;4.60;99.90
59893;DHT22;45758;51.052;3.740;2022-12-08T15:07:13;4.40;99.90
59893;DHT22;45758;51.052;3.740;2022-12-08T15:09:46;4.40;99.90
59893;DHT22;45758;51.052;3.740;2022-12-08T15:12:39;4.40;99.90
59893;DHT22;45758;51.052;3.740;2022-12-08T15:20:43;4.30;99.90
59893;DHT22;45758;51.052;3.740;2022-12-08T15:23:28;4.30;99.90
59893;DHT22;45758;51.052;3.740;2022-12-08T15:26:03;4.30;99.90
59893;DHT22;45758;51.052;3.740;2022-12-08T15:28:36;4.40;99.90
59893;DHT22;45758;51.052;3.740;2022-12-08T15:31:05;4.50;99.90
59893;DHT22;45758;51.052;3.740;2022-12-08T15:33:31;4.30;99.90
59893;DHT22;45758;51.052;3.740;2022-12-08T15:35:57;4.30;99.90
59893;DHT22;45758;51.052;3.740;2022-12-08T15:38:27;4.10;99.90
59893;DHT22;45758;51.052;3.740;2022-12-08T15:40:54;4.00;99.90
59893;DHT22;45758;51.052;3.740;2022-12-08T15:43:21;3.90;99.90
59893;DHT22;45758;51.052;3.740;2022-12-08T15:45:47;3.90;99.90
59893;DHT22;45758;51.052;3.740;2022-12-08T15:48:31;4.00;99.90
59893;DHT22;45758;51.052;3.740;2022-12-08T15:50:58;4.00;99.90
59893;DHT22;45758;51.052;3.740;2022-12-08T15:53:24;3.90;99.90
59893;DHT22;45758;51.052;3.740;2022-12-08T15:55:50;3.80;99.90
59893;DHT22;45758;51.052;3.740;2022-12-08T15:58:20;3.70;99.90
59893;DHT22;45758;51.052;3.740;2022-12-08T16:00:46;3.70;99.90
59893;DHT22;45758;51.052;3.740;2022-12-08T16:03:23;3.80;99.90
59893;DHT22;45758;51.052;3.740;2022-12-08T16:05:50;3.80;99.90
59893;DHT22;45758;51.052;3.740;2022-12-08T16:08:17;3.70;99.90
59893;DHT22;45758;51.052;3.740;2022-12-08T16:10:43;3.80;99.90
59893;DHT22;45758;51.052;3.740;2022-12-08T16:13:20;3.80;99.90
59893;DHT22;45758;51.052;3.740;2022-12-08T16:16:10;3.70;99.90
59893;DHT22;45758;51.052;3.740;2022-12-08T16:18:42;3.60;99.90
59893;DHT22;45758;51.052;3.740;2022-12-08T16:21:09;3.70;99.90
59893;DHT22;45758;51.052;3.740;2022-12-08T16:23:35;3.60;99.90
59893;DHT22;45758;51.052;3.740;2022-12-08T16:26:01;3.60;99.90
59893;DHT22;45758;51.052;3.740;2022-12-08T16:28:27;3.60;99.90
59893;DHT22;45758;51.052;3.740;2022-12-08T16:30:53;3.70;99.90
59893;DHT22;45758;51.052;3.740;2022-12-08T16:33:19;3.70;99.90
59893;DHT22;45758;51.052;3.740;2022-12-08T16:35:47;3.70;99.90
59893;DHT22;45758;51.052;3.740;2022-12-08T16:38:13;3.80;99.90
59893;DHT22;45758;51.052;3.740;2022-12-08T16:40:45;3.60;99.90
59893;DHT22;45758;51.052;3.740;2022-12-08T16:43:33;3.50;99.90
59893;DHT22;45758;51.052;3.740;2022-12-08T16:46:00;3.50;99.90
59893;DHT22;45758;51.052;3.740;2022-12-08T16:48:27;3.70;99.90
59893;DHT22;45758;51.052;3.740;2022-12-08T16:50:53;3.60;99.90
59893;DHT22;45758;51.052;3.740;2022-12-08T16:53:19;3.50;99.90
59893;DHT22;45758;51.052;3.740;2022-12-08T16:55:46;3.40;99.90
59893;DHT22;45758;51.052;3.740;2022-12-08T16:58:13;3.50;99.90
59893;DHT22;45758;51.052;3.740;2022-12-08T17:00:39;3.40;99.90
59893;DHT22;45758;51.052;3.740;2022-12-08T17:03:06;3.50;99.90
59893;DHT22;45758;51.052;3.740;2022-12-08T17:05:35;3.40;99.90
59893;DHT22;45758;51.052;3.740;2022-12-08T17:08:04;3.40;99.90
59893;DHT22;45758;51.052;3.740;2022-12-08T17:10:30;3.30;99.90
59893;DHT22;45758;51.052;3.740;2022-12-08T17:13:00;3.40;99.90
59893;DHT22;45758;51.052;3.740;2022-12-08T17:15:26;3.40;99.90
59893;DHT22;45758;51.052;3.740;2022-12-08T17:17:53;3.50;99.90
59893;DHT22;45758;51.052;3.740;2022-12-08T17:20:27;3.50;99.90
59893;DHT22;45758;51.052;3.740;2022-12-08T17:22:54;3.40;99.90
59893;DHT22;45758;51.052;3.740;2022-12-08T17:25:20;3.50;99.90
59893;DHT22;45758;51.052;3.740;2022-12-08T17:27:46;3.30;99.90
59893;DHT22;45758;51.052;3.740;2022-12-08T17:30:12;3.30;99.90
59893;DHT22;45758;51.052;3.740;2022-12-08T17:32:41;3.30;99.90
59893;DHT22;45758;51.052;3.740;2022-12-08T17:35:07;3.30;99.90
59893;DHT22;45758;51.052;3.740;2022-12-08T17:37:33;3.30;99.90
59893;DHT22;45758;51.052;3.740;2022-12-08T17:40:00;3.30;99.90
59893;DHT22;45758;51.052;3.740;2022-12-08T17:42:26;3.40;99.90
59893;DHT22;45758;51.052;3.740;2022-12-08T17:44:53;3.20;99.90
59893;DHT22;45758;51.052;3.740;2022-12-08T17:47:19;3.30;99.90
59893;DHT22;45758;51.052;3.740;2022-12-08T17:49:45;3.20;99.90
59893;DHT22;45758;51.052;3.740;2022-12-08T17:52:11;3.10;99.90
59893;DHT22;45758;51.052;3.740;2022-12-08T17:54:38;3.10;99.90
59893;DHT22;45758;51.052;3.740;2022-12-08T17:57:04;3.00;99.90
59893;DHT22;45758;51.052;3.740;2022-12-08T17:59:30;3.10;99.90
59893;DHT22;45758;51.052;3.740;2022-12-08T18:01:57;3.10;99.90
59893;DHT22;45758;51.052;3.740;2022-12-08T18:04:24;3.10;99.90
59893;DHT22;45758;51.052;3.740;2022-12-08T18:06:51;3.10;99.90
59893;DHT22;45758;51.052;3.740;2022-12-08T18:09:17;3.00;99.90
59893;DHT22;45758;51.052;3.740;2022-12-08T18:11:43;3.10;99.90
59893;DHT22;45758;51.052;3.740;2022-12-08T18:14:12;3.10;99.90
59893;DHT22;45758;51.052;3.740;2022-12-08T18:16:41;3.10;99.90
59893;DHT22;45758;51.052;3.740;2022-12-08T18:19:07;3.30;99.90
59893;DHT22;45758;51.052;3.740;2022-12-08T18:21:34;3.30;99.90
59893;DHT22;45758;51.052;3.740;2022-12-08T18:24:00;3.30;99.90
59893;DHT22;45758;51.052;3.740;2022-12-08T18:26:27;3.30;99.90
59893;DHT22;45758;51.052;3.740;2022-12-08T18:28:55;3.40;99.90
59893;DHT22;45758;51.052;3.740;2022-12-08T18:31:21;3.40;99.90
59893;DHT22;45758;51.052;3.740;2022-12-08T18:33:48;3.60;99.90
59893;DHT22;45758;51.052;3.740;2022-12-08T18:36:16;3.70;99.90
59893;DHT22;45758;51.052;3.740;2022-12-08T18:38:43;3.80;99.90
59893;DHT22;45758;51.052;3.740;2022-12-08T18:41:32;3.80;99.90
59893;DHT22;45758;51.052;3.740;2022-12-08T18:43:57;3.90;99.90
59893;DHT22;45758;51.052;3.740;2022-12-08T18:46:24;4.00;99.90
59893;DHT22;45758;51.052;3.740;2022-12-08T18:48:50;3.80;99.90
59893;DHT22;45758;51.052;3.740;2022-12-08T18:51:19;3.60;99.90
59893;DHT22;45758;51.052;3.740;2022-12-08T18:53:46;3.70;99.90
59893;DHT22;45758;51.052;3.740;2022-12-08T18:56:31;3.60;99.90
59893;DHT22;45758;51.052;3.740;2022-12-08T18:59:03;3.50;99.90
59893;DHT22;45758;51.052;3.740;2022-12-08T19:01:30;3.50;99.90
59893;DHT22;45758;51.052;3.740;2022-12-08T19:03:58;3.40;99.90
59893;DHT22;45758;51.052;3.740;2022-12-08T19:06:24;3.40;99.90
59893;DHT22;45758;51.052;3.740;2022-12-08T19:08:50;3.40;99.90
59893;DHT22;45758;51.052;3.740;2022-12-08T19:11:24;3.30;99.90
59893;DHT22;45758;51.052;3.740;2022-12-08T19:13:51;3.30;99.90
59893;DHT22;45758;51.052;3.740;2022-12-08T19:16:17;3.30;99.90
59893;DHT22;45758;51.052;3.740;2022-12-08T19:18:43;3.30;99.90
59893;DHT22;45758;51.052;3.740;2022-12-08T19:21:10;3.40;99.90
59893;DHT22;45758;51.052;3.740;2022-12-08T19:23:37;3.40;99.90
59893;DHT22;45758;51.052;3.740;2022-12-08T19:26:03;3.40;99.90